createdAt,value
2023-01-11T00:01:10.375Z,45.04
2023-01-11T00:03:38.328Z,45.22
2023-01-11T00:06:08.472Z,45.37
2023-01-11T00:08:38.125Z,45.48
2023-01-11T00:11:15.085Z,45.32
2023-01-11T00:13:45.280Z,45.36
2023-01-11T00:16:13.990Z,45.33
2023-01-11T00:18:41.876Z,45.36
2023-01-11T00:21:10.706Z,45.55
2023-01-11T00:23:38.684Z,45.34
2023-01-11T00:26:10.073Z,45.41
2023-01-11T00:28:37.824Z,45.70
2023-01-11T00:31:05.953Z,45.71
2023-01-11T00:33:34.536Z,45.51
2023-01-11T00:36:22.137Z,45.66
2023-01-11T00:38:53.802Z,45.65
2023-01-11T00:41:41.523Z,45.56
2023-01-11T00:44:29.470Z,45.55
2023-01-11T00:47:16.525Z,45.63
2023-01-11T00:49:44.668Z,45.62
2023-01-11T00:52:12.584Z,45.69
2023-01-11T00:54:42.284Z,45.59
2023-01-11T00:57:10.057Z,45.68
2023-01-11T00:59:41.365Z,45.55
2023-01-11T01:02:11.082Z,45.60
2023-01-11T01:04:39.846Z,45.58
2023-01-11T01:07:08.688Z,45.74
2023-01-11T01:09:36.347Z,45.82
2023-01-11T01:12:06.869Z,45.83
2023-01-11T01:14:35.243Z,45.75
2023-01-11T01:17:08.699Z,45.82
2023-01-11T01:19:38.786Z,46.00
2023-01-11T01:22:07.312Z,46.02
2023-01-11T01:24:35.383Z,46.09
2023-01-11T01:27:03.536Z,46.05
2023-01-11T01:29:31.613Z,46.13
2023-01-11T01:31:59.529Z,46.20
2023-01-11T01:34:27.664Z,46.16
2023-01-11T01:36:55.498Z,46.22
2023-01-11T01:39:23.209Z,46.41
2023-01-11T01:41:50.925Z,46.36
2023-01-11T01:44:59.993Z,46.30
2023-01-11T01:47:43.181Z,46.54
2023-01-11T01:50:43.849Z,46.47
2023-01-11T01:53:23.986Z,46.52
2023-01-11T01:56:00.128Z,46.65
2023-01-11T01:58:43.458Z,46.64
2023-01-11T02:01:35.565Z,46.80
2023-01-11T02:04:34.035Z,47.01
2023-01-11T02:07:19.443Z,47.13
2023-01-11T02:10:20.055Z,47.30
2023-01-11T02:13:05.403Z,47.35
2023-01-11T02:15:33.322Z,47.37
2023-01-11T02:18:00.940Z,47.61
2023-01-11T02:21:00.883Z,47.59
2023-01-11T02:24:14.260Z,47.70
2023-01-11T02:27:12.844Z,47.88
2023-01-11T02:30:08.697Z,47.86
2023-01-11T02:33:19.719Z,48.06
2023-01-11T02:36:09.560Z,48.27
2023-01-11T02:39:06.012Z,48.57
2023-01-11T02:42:03.399Z,48.75
2023-01-11T02:45:01.397Z,48.80
2023-01-11T02:47:53.580Z,49.06
2023-01-11T02:51:07.027Z,49.15
2023-01-11T02:53:48.631Z,49.29
2023-01-11T02:56:25.235Z,49.30
2023-01-11T02:58:56.908Z,49.24
2023-01-11T03:01:25.651Z,49.50
2023-01-11T03:03:54.527Z,49.49
2023-01-11T03:06:26.148Z,49.59
2023-01-11T03:09:17.486Z,49.94
2023-01-11T03:12:19.043Z,49.88
2023-01-11T03:15:12.387Z,50.08
2023-01-11T03:18:06.311Z,50.06
2023-01-11T03:20:41.954Z,50.23
2023-01-11T03:23:31.382Z,50.45
2023-01-11T03:26:24.183Z,50.57
2023-01-11T03:29:20.157Z,50.97
2023-01-11T03:32:21.035Z,50.75
2023-01-11T03:35:03.969Z,50.90
2023-01-11T03:37:39.691Z,50.97
2023-01-11T03:40:20.247Z,51.11
2023-01-11T03:43:11.529Z,51.22
2023-01-11T03:46:11.585Z,50.90
2023-01-11T03:48:54.084Z,51.12
2023-01-11T03:51:27.914Z,51.19
2023-01-11T03:54:03.382Z,51.18
2023-01-11T03:56:56.561Z,51.24
2023-01-11T03:59:25.640Z,51.29
2023-01-11T04:01:55.425Z,50.98
2023-01-11T04:04:24.683Z,51.38
2023-01-11T04:06:52.674Z,51.26
2023-01-11T04:09:20.531Z,51.30
2023-01-11T04:11:48.445Z,51.39
2023-01-11T04:14:16.168Z,51.36
2023-01-11T04:16:43.989Z,51.39
2023-01-11T04:19:11.604Z,51.28
2023-01-11T04:21:39.260Z,51.31
2023-01-11T04:24:07.374Z,51.34
2023-01-11T04:26:35.272Z,51.30
2023-01-11T04:29:03.163Z,51.33
2023-01-11T04:31:31.332Z,51.25
2023-01-11T04:33:59.148Z,51.36
2023-01-11T04:36:28.629Z,51.32
2023-01-11T04:38:56.564Z,51.44
2023-01-11T04:41:43.025Z,51.40
2023-01-11T04:44:11.220Z,51.39
2023-01-11T04:46:38.867Z,51.41
2023-01-11T04:49:06.615Z,51.38
2023-01-11T04:51:34.286Z,51.48
2023-01-11T04:54:02.125Z,51.57
2023-01-11T04:56:29.971Z,51.44
2023-01-11T04:58:57.752Z,51.17
2023-01-11T05:01:25.543Z,51.47
2023-01-11T05:03:54.380Z,51.57
2023-01-11T05:06:22.696Z,51.60
2023-01-11T05:08:50.426Z,51.75
2023-01-11T05:11:18.568Z,51.68
2023-01-11T05:13:46.479Z,51.44
2023-01-11T05:16:21.308Z,51.69
2023-01-11T05:19:01.501Z,51.63
2023-01-11T05:21:36.072Z,51.50
2023-01-11T05:24:06.865Z,51.62
2023-01-11T05:26:37.335Z,51.76
2023-01-11T05:29:09.002Z,51.85
2023-01-11T05:31:38.772Z,51.76
2023-01-11T05:34:07.998Z,51.75
2023-01-11T05:36:36.459Z,51.89
2023-01-11T05:39:05.588Z,51.66
2023-01-11T05:41:33.888Z,51.79
2023-01-11T05:44:20.231Z,51.91
2023-01-11T05:46:48.006Z,52.09
2023-01-11T05:49:15.899Z,52.10
2023-01-11T05:51:44.375Z,52.01
2023-01-11T05:54:14.619Z,52.01
2023-01-11T05:56:42.971Z,51.87
2023-01-11T05:59:11.389Z,51.85
2023-01-11T06:01:39.486Z,51.89
2023-01-11T06:04:08.506Z,51.80
2023-01-11T06:06:36.464Z,51.74
2023-01-11T06:09:04.278Z,51.79
2023-01-11T06:11:32.114Z,51.77
2023-01-11T06:13:59.760Z,51.74
2023-01-11T06:16:27.405Z,51.83
2023-01-11T06:18:55.652Z,51.79
2023-01-11T06:21:24.279Z,51.76
2023-01-11T06:23:52.152Z,51.82
2023-01-11T06:26:22.997Z,51.87
2023-01-11T06:28:51.495Z,51.81
2023-01-11T06:31:19.664Z,51.72
2023-01-11T06:33:47.716Z,51.64
2023-01-11T06:36:16.356Z,51.55
2023-01-11T06:39:04.710Z,51.89
2023-01-11T06:41:52.285Z,51.79
2023-01-11T06:44:20.069Z,51.74
2023-01-11T06:46:47.823Z,51.76
2023-01-11T06:49:15.631Z,51.65
2023-01-11T06:51:43.385Z,51.66
2023-01-11T06:54:12.205Z,51.62
2023-01-11T06:56:40.643Z,51.67
2023-01-11T06:59:08.612Z,51.76
2023-01-11T07:01:36.766Z,51.61
2023-01-11T07:04:24.745Z,51.78
2023-01-11T07:07:13.418Z,51.75
2023-01-11T07:09:42.490Z,51.57
2023-01-11T07:12:10.220Z,51.73
2023-01-11T07:14:46.232Z,51.61
2023-01-11T07:17:13.928Z,51.65
2023-01-11T07:19:42.317Z,51.59
2023-01-11T07:22:10.782Z,51.69
2023-01-11T07:24:40.154Z,51.71
2023-01-11T07:27:08.210Z,51.69
2023-01-11T07:29:35.936Z,51.45
2023-01-11T07:32:04.815Z,51.51
2023-01-11T07:34:33.061Z,51.49
2023-01-11T07:37:01.557Z,51.46
2023-01-11T07:39:42.851Z,51.49
2023-01-11T07:42:31.285Z,51.40
2023-01-11T07:44:59.367Z,51.44
2023-01-11T07:47:27.737Z,51.51
2023-01-11T07:49:58.506Z,51.41
2023-01-11T07:52:26.311Z,51.46
2023-01-11T07:54:54.042Z,51.45
2023-01-11T07:57:21.739Z,51.36
2023-01-11T07:59:50.160Z,51.37
2023-01-11T08:02:18.021Z,51.34
2023-01-11T08:04:45.943Z,51.31
2023-01-11T08:07:13.785Z,51.33
2023-01-11T08:09:41.823Z,51.37
2023-01-11T08:12:39.111Z,51.56
2023-01-11T08:15:10.126Z,51.44
2023-01-11T08:17:38.437Z,51.37
2023-01-11T08:20:06.561Z,51.48
2023-01-11T08:22:34.527Z,51.41
2023-01-11T08:25:02.199Z,51.54
2023-01-11T08:27:30.498Z,51.46
2023-01-11T08:29:58.202Z,51.54
2023-01-11T08:32:29.134Z,51.44
2023-01-11T08:34:56.926Z,51.57
2023-01-11T08:37:24.587Z,51.68
2023-01-11T08:39:52.451Z,51.50
2023-01-11T08:42:20.323Z,51.64
2023-01-11T08:44:48.101Z,51.52
2023-01-11T08:47:15.897Z,51.65
2023-01-11T08:49:43.587Z,52.00
2023-01-11T08:52:14.416Z,51.88
2023-01-11T08:54:42.420Z,52.07
2023-01-11T08:57:11.978Z,51.77
2023-01-11T08:59:39.653Z,52.06
2023-01-11T09:02:08.907Z,52.02
2023-01-11T09:04:36.547Z,52.24
2023-01-11T09:07:04.422Z,52.13
2023-01-11T09:09:32.176Z,52.26
2023-01-11T09:12:05.479Z,52.41
2023-01-11T09:14:34.199Z,52.48
2023-01-11T09:17:02.019Z,52.75
2023-01-11T09:19:29.955Z,52.70
2023-01-11T09:21:58.427Z,52.84
2023-01-11T09:24:26.346Z,53.13
2023-01-11T09:26:54.114Z,53.20
2023-01-11T09:29:21.933Z,53.53
2023-01-11T09:31:49.601Z,53.92
2023-01-11T09:34:17.660Z,54.17
2023-01-11T09:36:48.564Z,54.27
2023-01-11T09:39:20.303Z,54.57
2023-01-11T09:42:00.645Z,54.64
2023-01-11T09:44:30.818Z,54.96
2023-01-11T09:47:32.803Z,55.05
2023-01-11T09:50:11.333Z,55.15
2023-01-11T09:52:43.588Z,55.45
2023-01-11T09:55:24.578Z,55.47
2023-01-11T09:58:28.236Z,55.71
2023-01-11T10:01:10.419Z,55.82
2023-01-11T10:04:26.058Z,56.02
2023-01-11T10:07:16.626Z,56.06
2023-01-11T10:18:22.720Z,56.27
2023-01-11T10:18:32.991Z,56.60
2023-01-11T10:20:40.853Z,56.58
2023-01-11T10:23:24.798Z,56.78
2023-01-11T10:25:58.686Z,56.59
2023-01-11T10:28:43.107Z,56.69
2023-01-11T10:31:44.866Z,56.79
2023-01-11T10:34:54.857Z,56.79
2023-01-11T10:37:49.479Z,56.90
2023-01-11T10:41:04.287Z,57.11
2023-01-11T10:43:41.638Z,57.20
2023-01-11T10:46:16.882Z,57.08
2023-01-11T10:48:46.993Z,57.31
2023-01-11T10:51:55.563Z,57.21
2023-01-11T10:54:33.099Z,57.36
2023-01-11T10:58:01.824Z,57.25
2023-01-11T11:01:10.317Z,57.39
2023-01-11T11:04:02.743Z,57.32
2023-01-11T11:07:02.985Z,57.29
2023-01-11T11:09:55.654Z,57.34
2023-01-11T11:12:39.400Z,57.32
2023-01-11T11:15:27.166Z,57.45
2023-01-11T11:17:55.114Z,57.29
2023-01-11T11:20:28.763Z,57.36
2023-01-11T11:22:57.567Z,57.54
2023-01-11T11:25:37.428Z,57.43
2023-01-11T11:28:30.560Z,57.47
2023-01-11T11:31:05.834Z,57.69
2023-01-11T11:33:38.095Z,57.51
2023-01-11T11:36:12.747Z,57.59
2023-01-11T11:39:11.563Z,57.52
2023-01-11T11:41:56.254Z,57.74
2023-01-11T11:44:28.866Z,57.68
2023-01-11T11:47:16.522Z,57.66
2023-01-11T11:49:44.442Z,57.99
2023-01-11T11:52:17.785Z,57.75
2023-01-11T11:54:58.179Z,57.90
2023-01-11T11:57:31.130Z,58.10
2023-01-11T12:00:08.985Z,57.92
2023-01-11T12:02:41.553Z,57.86
2023-01-11T12:05:11.253Z,58.14
2023-01-11T12:07:54.717Z,57.89
2023-01-11T12:10:30.022Z,57.99
2023-01-11T12:13:00.244Z,58.01
2023-01-11T12:15:30.759Z,58.00
2023-01-11T12:18:41.104Z,58.42
2023-01-11T12:21:21.888Z,58.11
2023-01-11T12:24:19.556Z,58.52
2023-01-11T12:27:25.839Z,59.62
2023-01-11T12:30:08.456Z,61.01
2023-01-11T12:33:13.815Z,61.38
2023-01-11T12:36:10.580Z,61.82
2023-01-11T12:39:38.505Z,62.22
2023-01-11T12:42:45.051Z,62.49
2023-01-11T12:45:27.263Z,62.82
2023-01-11T12:48:29.352Z,62.76
2023-01-11T12:51:17.770Z,63.06
2023-01-11T12:54:00.855Z,63.67
2023-01-11T12:57:21.319Z,63.58
2023-01-11T13:00:49.517Z,63.87
2023-01-11T13:03:37.406Z,64.51
2023-01-11T13:06:19.867Z,64.53
2023-01-11T13:08:59.658Z,64.70
2023-01-11T13:11:37.645Z,64.66
2023-01-11T13:14:29.372Z,64.92
2023-01-11T13:17:22.303Z,65.15
2023-01-11T13:20:17.234Z,65.26
2023-01-11T13:22:52.455Z,65.48
2023-01-11T13:25:28.837Z,65.41
2023-01-11T13:28:06.725Z,65.61
2023-01-11T13:30:36.593Z,65.72
2023-01-11T13:33:14.929Z,65.62
2023-01-11T13:35:53.275Z,65.47
2023-01-11T13:38:48.379Z,65.39
2023-01-11T13:41:48.783Z,65.46
2023-01-11T13:44:22.678Z,65.98
2023-01-11T13:47:35.018Z,65.76
2023-01-11T13:50:37.273Z,65.76
2023-01-11T13:53:34.598Z,66.02
2023-01-11T13:56:31.013Z,65.81
2023-01-11T13:59:34.493Z,65.81
2023-01-11T14:02:20.878Z,65.90
2023-01-11T14:05:10.392Z,65.74
2023-01-11T14:07:52.189Z,65.72
2023-01-11T14:10:41.198Z,65.93
2023-01-11T14:13:59.665Z,65.65
2023-01-11T14:17:01.823Z,65.88
2023-01-11T14:19:44.933Z,66.04
2023-01-11T14:22:34.689Z,65.68
2023-01-11T14:25:22.252Z,66.02
2023-01-11T14:28:07.220Z,65.65
2023-01-11T14:30:44.805Z,65.68
2023-01-11T14:34:05.302Z,65.48
2023-01-11T14:37:03.764Z,65.39
2023-01-11T14:40:05.619Z,65.40
2023-01-11T14:42:51.346Z,65.67
2023-01-11T14:45:43.233Z,65.66
2023-01-11T14:48:25.327Z,65.40
2023-01-11T14:51:33.230Z,65.13
2023-01-11T14:54:21.318Z,65.12
2023-01-11T14:56:55.617Z,65.11
2023-01-11T14:59:31.147Z,65.24
2023-01-11T15:02:04.706Z,65.14
2023-01-11T15:04:52.328Z,64.79
2023-01-11T15:07:41.766Z,64.92
2023-01-11T15:10:28.437Z,65.01
2023-01-11T15:12:57.480Z,65.08
2023-01-11T15:15:47.597Z,64.90
2023-01-11T15:18:21.633Z,64.78
2023-01-11T15:21:06.553Z,64.59
2023-01-11T15:23:48.453Z,64.46
2023-01-11T15:26:19.596Z,64.42
2023-01-11T15:28:58.350Z,64.26
2023-01-11T15:32:03.933Z,64.10
2023-01-11T15:34:31.682Z,64.37
2023-01-11T15:37:03.449Z,64.19
2023-01-11T15:40:02.183Z,63.87
2023-01-11T15:42:56.296Z,64.09
2023-01-11T15:46:31.325Z,63.86
2023-01-11T15:49:48.438Z,63.97
2023-01-11T15:52:37.872Z,64.02
2023-01-11T15:55:26.482Z,64.00
2023-01-11T15:58:42.401Z,63.78
2023-01-11T16:01:26.382Z,63.87
2023-01-11T16:04:33.552Z,63.88
2023-01-11T16:07:19.924Z,63.95
2023-01-11T16:10:44.253Z,63.70
2023-01-11T16:13:29.866Z,64.12
2023-01-11T16:16:29.429Z,63.75
2023-01-11T16:18:58.699Z,63.96
2023-01-11T16:21:35.676Z,63.97
2023-01-11T16:24:13.298Z,64.14
2023-01-11T16:26:42.075Z,64.04
2023-01-11T16:29:28.834Z,63.87
2023-01-11T16:32:27.104Z,63.78
2023-01-11T16:34:55.676Z,64.16
2023-01-11T16:37:42.511Z,63.66
2023-01-11T16:40:30.616Z,63.87
2023-01-11T16:43:08.510Z,63.93
2023-01-11T16:45:46.651Z,63.94
2023-01-11T16:48:26.933Z,63.98
2023-01-11T16:51:17.091Z,63.76
2023-01-11T16:53:57.788Z,63.88
2023-01-11T16:56:25.763Z,63.98
2023-01-11T16:59:14.801Z,63.27
2023-01-11T17:01:56.948Z,63.19
2023-01-11T17:04:49.088Z,63.08
2023-01-11T17:07:29.701Z,62.99
2023-01-11T17:10:19.274Z,62.61
2023-01-11T17:13:36.855Z,62.59
2023-01-11T17:16:10.434Z,62.58
2023-01-11T17:18:40.932Z,62.56
2023-01-11T17:21:26.607Z,62.15
2023-01-11T17:24:03.025Z,62.07
2023-01-11T17:26:43.851Z,62.19
2023-01-11T17:29:31.348Z,61.86
2023-01-11T17:32:03.059Z,62.08
2023-01-11T17:34:37.678Z,61.64
2023-01-11T17:37:12.606Z,61.71
2023-01-11T17:39:46.919Z,61.60
2023-01-11T17:42:35.256Z,61.52
2023-01-11T17:45:25.307Z,61.16
2023-01-11T17:47:55.006Z,61.13
2023-01-11T17:50:32.666Z,60.92
2023-01-11T17:53:12.490Z,60.73
2023-01-11T17:56:45.169Z,60.72
2023-01-11T17:59:31.358Z,60.78
2023-01-11T18:02:04.401Z,60.71
2023-01-11T18:04:32.278Z,60.63
2023-01-11T18:07:19.594Z,60.27
2023-01-11T18:09:57.254Z,60.33
2023-01-11T18:12:34.704Z,60.06
2023-01-11T18:15:07.435Z,60.11
2023-01-11T18:17:44.467Z,60.19
2023-01-11T18:20:15.371Z,60.37
2023-01-11T18:23:16.771Z,59.99
2023-01-11T18:25:46.553Z,60.55
2023-01-11T18:28:36.423Z,60.27
2023-01-11T18:31:05.126Z,60.50
2023-01-11T18:33:34.478Z,60.36
2023-01-11T18:36:23.692Z,60.41
2023-01-11T18:39:12.210Z,60.58
2023-01-11T18:41:58.727Z,60.51
2023-01-11T18:44:28.505Z,60.51
2023-01-11T18:46:56.257Z,60.59
2023-01-11T18:49:23.937Z,60.39
2023-01-11T18:51:51.684Z,60.44
2023-01-11T18:54:19.816Z,60.36
2023-01-11T18:56:47.569Z,60.60
2023-01-11T18:59:15.424Z,60.60
2023-01-11T19:01:56.577Z,60.42
2023-01-11T19:04:31.751Z,60.42
2023-01-11T19:06:59.662Z,60.32
2023-01-11T19:09:27.488Z,60.12
2023-01-11T19:11:55.866Z,60.07
2023-01-11T19:14:23.747Z,59.88
2023-01-11T19:16:51.729Z,59.78
2023-01-11T19:19:19.623Z,59.77
2023-01-11T19:21:47.575Z,59.57
2023-01-11T19:24:15.626Z,59.72
2023-01-11T19:26:43.456Z,59.56
2023-01-11T19:29:16.459Z,59.42
2023-01-11T19:31:46.080Z,59.52
2023-01-11T19:34:14.454Z,59.56
2023-01-11T19:36:42.166Z,59.29
2023-01-11T19:39:10.624Z,59.29
2023-01-11T19:41:54.243Z,59.26
2023-01-11T19:44:23.969Z,59.27
2023-01-11T19:47:00.277Z,59.19
2023-01-11T19:49:33.284Z,59.44
2023-01-11T19:52:00.969Z,59.42
2023-01-11T19:54:29.005Z,59.51
2023-01-11T19:56:56.695Z,59.34
2023-01-11T19:59:24.472Z,59.35
2023-01-11T20:01:52.090Z,59.22
2023-01-11T20:04:21.096Z,59.46
2023-01-11T20:06:53.664Z,59.12
2023-01-11T20:09:22.063Z,59.31
2023-01-11T20:11:50.040Z,59.12
2023-01-11T20:14:23.499Z,59.04
2023-01-11T20:16:51.728Z,59.30
2023-01-11T20:19:19.334Z,59.23
2023-01-11T20:21:47.021Z,59.27
2023-01-11T20:24:15.281Z,59.11
2023-01-11T20:26:45.264Z,59.08
2023-01-11T20:29:13.553Z,59.32
2023-01-11T20:31:41.262Z,58.93
2023-01-11T20:34:12.288Z,58.92
2023-01-11T20:36:40.230Z,59.09
2023-01-11T20:39:09.173Z,58.74
2023-01-11T20:41:46.913Z,58.66
2023-01-11T20:44:21.615Z,58.94
2023-01-11T20:46:53.272Z,58.75
2023-01-11T20:49:29.142Z,58.90
2023-01-11T20:51:57.246Z,58.93
2023-01-11T20:54:25.395Z,58.79
2023-01-11T20:56:53.237Z,58.79
2023-01-11T20:59:21.031Z,58.80
2023-01-11T21:01:50.013Z,58.61
2023-01-11T21:04:18.735Z,58.57
2023-01-11T21:06:48.365Z,58.65
2023-01-11T21:09:18.419Z,58.51
2023-01-11T21:11:53.150Z,58.46
2023-01-11T21:14:22.448Z,58.45
2023-01-11T21:16:50.529Z,58.59
2023-01-11T21:19:18.271Z,58.27
2023-01-11T21:21:47.046Z,58.27
2023-01-11T21:24:16.490Z,58.55
2023-01-11T21:26:45.626Z,58.57
2023-01-11T21:29:13.600Z,58.24
2023-01-11T21:31:42.007Z,58.53
2023-01-11T21:34:12.609Z,58.25
2023-01-11T21:36:42.483Z,58.62
2023-01-11T21:39:16.374Z,58.59
2023-01-11T21:41:58.110Z,58.57
2023-01-11T21:44:33.999Z,58.56
2023-01-11T21:47:06.652Z,58.41
2023-01-11T21:49:34.476Z,58.62
2023-01-11T21:52:02.155Z,58.31
2023-01-11T21:54:29.857Z,58.11
2023-01-11T21:56:57.902Z,58.16
2023-01-11T21:59:25.936Z,58.08
2023-01-11T22:01:54.129Z,57.89
2023-01-11T22:04:22.716Z,57.96
2023-01-11T22:06:56.892Z,57.85
2023-01-11T22:09:28.153Z,57.84
2023-01-11T22:11:56.088Z,57.80
2023-01-11T22:14:24.339Z,57.64
2023-01-11T22:16:53.191Z,57.94
2023-01-11T22:19:20.978Z,57.76
2023-01-11T22:21:49.205Z,57.67
2023-01-11T22:24:17.815Z,57.64
2023-01-11T22:26:45.575Z,57.74
2023-01-11T22:29:16.523Z,57.63
2023-01-11T22:31:56.865Z,57.71
2023-01-11T22:34:24.985Z,57.92
2023-01-11T22:36:54.166Z,57.78
2023-01-11T22:39:22.003Z,57.72
2023-01-11T22:41:50.115Z,57.59
2023-01-11T22:44:18.141Z,57.50
2023-01-11T22:46:45.959Z,57.21
2023-01-11T22:49:14.716Z,57.31
2023-01-11T22:51:43.700Z,57.04
2023-01-11T22:54:12.500Z,57.08
2023-01-11T22:56:40.817Z,57.12
2023-01-11T22:59:09.715Z,56.94
2023-01-11T23:01:41.845Z,57.08
2023-01-11T23:04:14.035Z,56.83
2023-01-11T23:06:43.123Z,56.82
2023-01-11T23:09:17.262Z,56.46
2023-01-11T23:12:05.889Z,56.70
2023-01-11T23:14:34.453Z,56.95
2023-01-11T23:17:06.693Z,56.96
2023-01-11T23:19:41.877Z,56.57
2023-01-11T23:22:10.092Z,56.72
2023-01-11T23:24:38.879Z,56.45
2023-01-11T23:27:06.697Z,56.75
2023-01-11T23:29:35.478Z,56.68
2023-01-11T23:32:03.285Z,56.54
2023-01-11T23:34:31.092Z,56.58
2023-01-11T23:36:58.748Z,56.65
2023-01-11T23:39:26.519Z,56.67
2023-01-11T23:42:13.185Z,56.62
2023-01-11T23:44:40.850Z,56.86
2023-01-11T23:47:21.043Z,56.35
2023-01-11T23:49:53.864Z,56.56
2023-01-11T23:52:29.099Z,56.09
2023-01-11T23:54:57.264Z,56.07
2023-01-11T23:57:25.910Z,55.99
2023-01-11T23:59:53.975Z,55.81
